Kennicott — WCY2920 — position and weather

sailwx.info

Track history (hours):
 
Tides and Currents Weather Stations Pressure Air Temp Water Temp Dewpoint Dewpoint Depression Visibility Wind Speed Wind Dir Waves Ship Positions

Kennicott

Owner: ALASKA, STATE OF, Anchorage, AK. More information available from US FCC via Universal Licensing System and Coast Guard Vessel Documentation Center.

Last reported at 2017-Aug-21 03:35 UTC. Time now 2017-Aug-22 22:30 UTC.
Position N 52°38' W 128°56'.

Type: Ship. MMSI: 368250000.

Date/timePositionNaut miles runAvg speedWind from/ knotsBaromVisibWave heightAir tempDewpointWater temp
2017-Aug-21 03:35N 52°38' W 128°56'217.6
2017-Aug-21 03:27N 52°37' W 128°54'1117.3
2017-Aug-21 02:49N 52°26' W 128°51'517.4
2017-Aug-21 02:30N 52°21' W 128°49'815.2
2017-Aug-21 02:00N 52°14' W 128°44'816.3
2017-Aug-21 01:30N 52°15' W 128°31'916.6
2017-Aug-21 00:57N 52°15' W 128°16'713.4
2017-Aug-21 00:26N 52°11' W 128°07'1 2.0
2017-Aug-20 23:51N 52°10' W 128°08'1 3.5
2017-Aug-20 23:30N 52°09' W 128°08'710.7
2017-Aug-20 22:53N 52°05' W 127°59'513.6
2017-Aug-20 22:30N 52°00' W 127°56'815.9
2017-Aug-20 22:00N 51°52' W 127°56'816.8
2017-Aug-20 21:30N 51°44' W 127°55'816.5
2017-Aug-20 21:00N 51°36' W 127°53'916.4
2017-Aug-20 20:29N 51°27' W 127°51'816.2
2017-Aug-20 20:00N 51°20' W 127°52'815.6
2017-Aug-20 19:30N 51°12' W 127°51'815.5
2017-Aug-20 19:00N 51°06' W 127°44'815.7
2017-Aug-20 18:30N 50°60' W 127°35'815.2
2017-Aug-20 18:00N 50°55' W 127°26'815.7
2017-Aug-20 17:30N 50°51' W 127°15'816.3
2017-Aug-20 17:01N 50°47' W 127°04'916.4
2017-Aug-20 16:27N 50°41' W 126°53'4616.6
2017-Aug-20 13:41N 50°23' W 125°47'319.0
2017-Aug-20 13:30N 50°22' W 125°42'918.1
2017-Aug-20 12:59N 50°20' W 125°27'816.9
2017-Aug-20 12:30N 50°13' W 125°23'714.5
2017-Aug-20 12:01N 50°06' W 125°18'4 8.9
2017-Aug-20 11:30N 50°03' W 125°14'4 7.5
2017-Aug-20 11:00N 49°59' W 125°12'713.5
2017-Aug-20 10:30N 49°54' W 125°04'714.6
2017-Aug-20 10:00N 49°49' W 124°56'815.4
2017-Aug-20 09:30N 49°44' W 124°48'816.3
2017-Aug-20 09:01N 49°38' W 124°38'816.3
2017-Aug-20 08:31N 49°32' W 124°30'816.6
2017-Aug-20 08:01N 49°27' W 124°20'816.9
2017-Aug-20 07:31N 49°24' W 124°08'816.5
2017-Aug-20 07:01N 49°22' W 123°56'816.1
2017-Aug-20 06:30N 49°19' W 123°44'816.6
2017-Aug-20 06:01N 49°13' W 123°35'816.0
2017-Aug-20 05:31N 49°07' W 123°27'815.9
2017-Aug-20 05:01N 49°02' W 123°18'816.2
2017-Aug-20 04:30N 48°56' W 123°09'816.7
2017-Aug-20 04:00N 48°51' W 122°59'916.8
2017-Aug-20 03:29N 48°46' W 122°48'816.1
2017-Aug-20 03:01N 48°40' W 122°41'510.7
2017-Aug-20 02:30N 48°41' W 122°33'3 5.2
2017-Aug-20 01:59N 48°43' W 122°31'0 0.0
2017-Aug-20 01:29N 48°43' W 122°31'0 0.0
2017-Aug-20 00:59N 48°43' W 122°31'0 0.0
2017-Aug-20 00:29N 48°43' W 122°31'0 0.0
2017-Aug-19 23:50N 48°43' W 122°31'0 0.0
2017-Aug-19 23:29N 48°43' W 122°31'0 0.0
2017-Aug-19 22:53N 48°43' W 122°31'0 0.0
2017-Aug-19 22:29N 48°43' W 122°31'0 0.0
2017-Aug-19 21:59N 48°43' W 122°31'0 0.0
2017-Aug-19 21:08N 48°43' W 122°31'0 0.0
2017-Aug-19 20:59N 48°43' W 122°31'0 0.0
2017-Aug-19 20:28N 48°43' W 122°31'0 0.0
2017-Aug-19 19:55N 48°43' W 122°31'0 0.0
2017-Aug-19 19:28N 48°43' W 122°31'0 0.0
2017-Aug-19 18:25N 48°43' W 122°31'0 0.0
2017-Aug-19 17:58N 48°43' W 122°31'0 0.0
2017-Aug-19 17:22N 48°43' W 122°31'0 0.0
2017-Aug-19 16:58N 48°43' W 122°31'0 0.0
2017-Aug-19 16:28N 48°43' W 122°31'0 0.0
2017-Aug-19 15:58N 48°43' W 122°31'0 0.0
2017-Aug-19 15:25N 48°43' W 122°31'0 0.1
2017-Aug-19 14:59N 48°43' W 122°31'7 7.6
2017-Aug-19 14:00N 48°37' W 122°37'612.8
2017-Aug-19 13:31N 48°41' W 122°44'714.1
2017-Aug-19 13:00N 48°47' W 122°52'714.5
2017-Aug-19 12:31N 48°50' W 123°01'714.0
2017-Aug-19 12:01N 48°54' W 123°10'714.6
2017-Aug-19 11:31N 48°59' W 123°18'714.5
2017-Aug-19 11:01N 49°04' W 123°26'714.2
2017-Aug-19 10:31N 49°10' W 123°33'714.9
2017-Aug-19 10:00N 49°15' W 123°40'815.3
2017-Aug-19 09:31N 49°21' W 123°48'714.2
2017-Aug-19 09:01N 49°23' W 123°59'714.6
2017-Aug-19 08:31N 49°24' W 124°10'714.7
2017-Aug-19 08:00N 49°27' W 124°21'715.0
2017-Aug-19 07:31N 49°32' W 124°29'714.8
2017-Aug-19 07:01N 49°37' W 124°37'714.7
2017-Aug-19 06:31N 49°42' W 124°45'815.2
2017-Aug-19 06:01N 49°47' W 124°54'815.0
2017-Aug-19 05:31N 49°53' W 125°02'715.0
2017-Aug-19 05:01N 49°58' W 125°10'611.9
2017-Aug-19 04:31N 50°03' W 125°15'510.3
2017-Aug-19 04:00N 50°07' W 125°20'713.3
2017-Aug-19 03:30N 50°14' W 125°23'1013.1
2017-Aug-19 02:47N 50°21' W 125°32'413.2
2017-Aug-19 02:26N 50°22' W 125°39'4014.4
2017-Aug-18 23:40N 50°32' W 126°40'313.0
2017-Aug-18 23:27N 50°34' W 126°42'2115.9
2017-Aug-18 22:07N 50°48' W 127°07'216.6
2017-Aug-18 22:01N 50°49' W 127°09'816.0
2017-Aug-18 21:30N 50°53' W 127°20'715.3
2017-Aug-18 21:00N 50°58' W 127°30'714.8
2017-Aug-18 20:30N 51°03' W 127°38'815.6
2017-Aug-18 20:00N 51°08' W 127°48'815.3
2017-Aug-18 19:30N 51°15' W 127°52'816.3
2017-Aug-18 19:00N 51°23' W 127°51'816.1
2017-Aug-18 18:30N 51°31' W 127°52'816.1
2017-Aug-18 18:00N 51°39' W 127°54'816.0
2017-Aug-18 17:31N 51°47' W 127°55'815.6
2017-Aug-18 17:01N 51°55' W 127°55'815.5
2017-Aug-18 16:31N 52°02' W 127°55'713.8
2017-Aug-18 16:00N 52°05' W 128°06'8 9.8
2017-Aug-18 15:09N 52°13' W 128°09'416.5
2017-Aug-18 14:53N 52°15' W 128°16'616.8
2017-Aug-18 14:30N 52°16' W 128°26'1212.1
2017-Aug-18 13:29N 52°28' W 128°27'915.5
2017-Aug-18 12:56N 52°37' W 128°30'413 9.4
2017-Aug-16 17:06N 58°14' W 135°28'516.4
2017-Aug-16 16:48N 58°16' W 135°37'516.1
2017-Aug-16 16:29N 58°18' W 135°46'816.2
2017-Aug-16 16:00N 58°20' W 136°00'  
2017-Aug-11 06:00N 58°12' W 151°18'3316.3 140 / 181013.7 12.811.8
2017-Aug-11 04:00N 58°36' W 150°36'   140 / 101014.6 15.613.3
Track history (hours):
 
Tides and Currents Weather Stations Pressure Air Temp Water Temp Dewpoint Dewpoint Depression Visibility Wind Speed Wind Dir Waves Ship Positions

Kennicott

Owner: ALASKA, STATE OF, Anchorage, AK. More information available from US FCC via Universal Licensing System and Coast Guard Vessel Documentation Center.

Last reported at 2017-Aug-21 03:35 UTC. Time now 2017-Aug-22 22:30 UTC.
Position N 52°38' W 128°56'.

Type: Ship. MMSI: 368250000.

Date/timePositionNaut miles runAvg speedWind from/ knotsBaromVisibWave heightAir tempDewpointWater temp
2017-Aug-21 03:35N 52°38' W 128°56'217.6
2017-Aug-21 03:27N 52°37' W 128°54'1117.3
2017-Aug-21 02:49N 52°26' W 128°51'517.4
2017-Aug-21 02:30N 52°21' W 128°49'815.2
2017-Aug-21 02:00N 52°14' W 128°44'816.3
2017-Aug-21 01:30N 52°15' W 128°31'916.6
2017-Aug-21 00:57N 52°15' W 128°16'713.4
2017-Aug-21 00:26N 52°11' W 128°07'1 2.0
2017-Aug-20 23:51N 52°10' W 128°08'1 3.5
2017-Aug-20 23:30N 52°09' W 128°08'710.7
2017-Aug-20 22:53N 52°05' W 127°59'513.6
2017-Aug-20 22:30N 52°00' W 127°56'815.9
2017-Aug-20 22:00N 51°52' W 127°56'816.8
2017-Aug-20 21:30N 51°44' W 127°55'816.5
2017-Aug-20 21:00N 51°36' W 127°53'916.4
2017-Aug-20 20:29N 51°27' W 127°51'816.2
2017-Aug-20 20:00N 51°20' W 127°52'815.6
2017-Aug-20 19:30N 51°12' W 127°51'815.5
2017-Aug-20 19:00N 51°06' W 127°44'815.7
2017-Aug-20 18:30N 50°60' W 127°35'815.2
2017-Aug-20 18:00N 50°55' W 127°26'815.7
2017-Aug-20 17:30N 50°51' W 127°15'816.3
2017-Aug-20 17:01N 50°47' W 127°04'916.4
2017-Aug-20 16:27N 50°41' W 126°53'4616.6
2017-Aug-20 13:41N 50°23' W 125°47'319.0
2017-Aug-20 13:30N 50°22' W 125°42'918.1
2017-Aug-20 12:59N 50°20' W 125°27'816.9
2017-Aug-20 12:30N 50°13' W 125°23'714.5
2017-Aug-20 12:01N 50°06' W 125°18'4 8.9
2017-Aug-20 11:30N 50°03' W 125°14'4 7.5
2017-Aug-20 11:00N 49°59' W 125°12'713.5
2017-Aug-20 10:30N 49°54' W 125°04'714.6
2017-Aug-20 10:00N 49°49' W 124°56'815.4
2017-Aug-20 09:30N 49°44' W 124°48'816.3
2017-Aug-20 09:01N 49°38' W 124°38'816.3
2017-Aug-20 08:31N 49°32' W 124°30'816.6
2017-Aug-20 08:01N 49°27' W 124°20'816.9
2017-Aug-20 07:31N 49°24' W 124°08'816.5
2017-Aug-20 07:01N 49°22' W 123°56'816.1
2017-Aug-20 06:30N 49°19' W 123°44'816.6
2017-Aug-20 06:01N 49°13' W 123°35'816.0
2017-Aug-20 05:31N 49°07' W 123°27'815.9
2017-Aug-20 05:01N 49°02' W 123°18'816.2
2017-Aug-20 04:30N 48°56' W 123°09'816.7
2017-Aug-20 04:00N 48°51' W 122°59'916.8
2017-Aug-20 03:29N 48°46' W 122°48'816.1
2017-Aug-20 03:01N 48°40' W 122°41'510.7
2017-Aug-20 02:30N 48°41' W 122°33'3 5.2
2017-Aug-20 01:59N 48°43' W 122°31'0 0.0
2017-Aug-20 01:29N 48°43' W 122°31'0 0.0
2017-Aug-20 00:59N 48°43' W 122°31'0 0.0
2017-Aug-20 00:29N 48°43' W 122°31'0 0.0
2017-Aug-19 23:50N 48°43' W 122°31'0 0.0
2017-Aug-19 23:29N 48°43' W 122°31'0 0.0
2017-Aug-19 22:53N 48°43' W 122°31'0 0.0
2017-Aug-19 22:29N 48°43' W 122°31'0 0.0
2017-Aug-19 21:59N 48°43' W 122°31'0 0.0
2017-Aug-19 21:08N 48°43' W 122°31'0 0.0
2017-Aug-19 20:59N 48°43' W 122°31'0 0.0
2017-Aug-19 20:28N 48°43' W 122°31'0 0.0
2017-Aug-19 19:55N 48°43' W 122°31'0 0.0
2017-Aug-19 19:28N 48°43' W 122°31'0 0.0
2017-Aug-19 18:25N 48°43' W 122°31'0 0.0
2017-Aug-19 17:58N 48°43' W 122°31'0 0.0
2017-Aug-19 17:22N 48°43' W 122°31'0 0.0
2017-Aug-19 16:58N 48°43' W 122°31'0 0.0
2017-Aug-19 16:28N 48°43' W 122°31'0 0.0
2017-Aug-19 15:58N 48°43' W 122°31'0 0.0
2017-Aug-19 15:25N 48°43' W 122°31'0 0.1
2017-Aug-19 14:59N 48°43' W 122°31'7 7.6
2017-Aug-19 14:00N 48°37' W 122°37'612.8
2017-Aug-19 13:31N 48°41' W 122°44'714.1
2017-Aug-19 13:00N 48°47' W 122°52'714.5
2017-Aug-19 12:31N 48°50' W 123°01'714.0
2017-Aug-19 12:01N 48°54' W 123°10'714.6
2017-Aug-19 11:31N 48°59' W 123°18'714.5
2017-Aug-19 11:01N 49°04' W 123°26'714.2
2017-Aug-19 10:31N 49°10' W 123°33'714.9
2017-Aug-19 10:00N 49°15' W 123°40'815.3
2017-Aug-19 09:31N 49°21' W 123°48'714.2
2017-Aug-19 09:01N 49°23' W 123°59'714.6
2017-Aug-19 08:31N 49°24' W 124°10'714.7
2017-Aug-19 08:00N 49°27' W 124°21'715.0
2017-Aug-19 07:31N 49°32' W 124°29'714.8
2017-Aug-19 07:01N 49°37' W 124°37'714.7
2017-Aug-19 06:31N 49°42' W 124°45'815.2
2017-Aug-19 06:01N 49°47' W 124°54'815.0
2017-Aug-19 05:31N 49°53' W 125°02'715.0
2017-Aug-19 05:01N 49°58' W 125°10'611.9
2017-Aug-19 04:31N 50°03' W 125°15'510.3
2017-Aug-19 04:00N 50°07' W 125°20'713.3
2017-Aug-19 03:30N 50°14' W 125°23'1013.1
2017-Aug-19 02:47N 50°21' W 125°32'413.2
2017-Aug-19 02:26N 50°22' W 125°39'4014.4
2017-Aug-18 23:40N 50°32' W 126°40'313.0
2017-Aug-18 23:27N 50°34' W 126°42'2115.9
2017-Aug-18 22:07N 50°48' W 127°07'216.6
2017-Aug-18 22:01N 50°49' W 127°09'816.0
2017-Aug-18 21:30N 50°53' W 127°20'715.3
2017-Aug-18 21:00N 50°58' W 127°30'714.8
2017-Aug-18 20:30N 51°03' W 127°38'815.6
2017-Aug-18 20:00N 51°08' W 127°48'815.3
2017-Aug-18 19:30N 51°15' W 127°52'816.3
2017-Aug-18 19:00N 51°23' W 127°51'816.1
2017-Aug-18 18:30N 51°31' W 127°52'816.1
2017-Aug-18 18:00N 51°39' W 127°54'816.0
2017-Aug-18 17:31N 51°47' W 127°55'815.6
2017-Aug-18 17:01N 51°55' W 127°55'815.5
2017-Aug-18 16:31N 52°02' W 127°55'713.8
2017-Aug-18 16:00N 52°05' W 128°06'8 9.8
2017-Aug-18 15:09N 52°13' W 128°09'416.5
2017-Aug-18 14:53N 52°15' W 128°16'616.8
2017-Aug-18 14:30N 52°16' W 128°26'1212.1
2017-Aug-18 13:29N 52°28' W 128°27'915.5
2017-Aug-18 12:56N 52°37' W 128°30'413 9.4
2017-Aug-16 17:06N 58°14' W 135°28'516.4
2017-Aug-16 16:48N 58°16' W 135°37'516.1
2017-Aug-16 16:29N 58°18' W 135°46'816.2
2017-Aug-16 16:00N 58°20' W 136°00'  
2017-Aug-11 06:00N 58°12' W 151°18'3316.3 140 / 181013.7 12.811.8
2017-Aug-11 04:00N 58°36' W 150°36'   140 / 101014.6 15.613.3

Dump ship's entire track history